Time;durP1;ratioP1;P1;durP2;ratioP2;P2;SDS_P1;SDS_P2;PMS_P1;PMS_P2;Temp;Humidity;BMP_temperature;BMP_pressure;BME280_temperature;BME280_humidity;BME280_pressure;Samples;Min_cycle;Max_cycle;Signal;HPM_P1;HPM_P2
2022/07/29 00:00:18;;;;;;;6.05;1.20;;;13.30;99.90;;;;;;21132387;28;20080;-62
2022/07/29 00:10:20;;;;;;;1.25;1.10;;;13.20;99.90;;;;;;21129945;28;20446;-61
2022/07/29 00:20:23;;;;;;;2.40;1.90;;;13.20;99.90;;;;;;21122855;28;20104;-57
2022/07/29 00:30:26;;;;;;;2.88;2.33;;;13.20;99.90;;;;;;21133528;27;20080;-56
2022/07/29 00:40:29;;;;;;;3.05;2.55;;;13.20;99.90;;;;;;21178781;27;20391;-57
2022/07/29 00:50:32;;;;;;;3.78;2.50;;;13.30;99.90;;;;;;21178567;27;20035;-60
2022/07/29 01:00:35;;;;;;;2.30;2.10;;;13.30;99.90;;;;;;21174534;27;20404;-59
2022/07/29 01:10:39;;;;;;;3.67;1.95;;;13.30;99.90;;;;;;21200374;27;20035;-59
2022/07/29 01:21:05;;;;;;;2.20;2.00;;;13.50;99.90;;;;;;21156621;27;20442;-58
2022/07/29 01:31:09;;;;;;;3.45;2.40;;;13.60;99.90;;;;;;21155968;27;20113;-58
2022/07/29 01:41:16;;;;;;;4.88;4.28;;;14.00;99.90;;;;;;21042762;28;20040;-58
2022/07/29 01:51:21;;;;;;;6.65;4.70;;;14.20;99.90;;;;;;21040515;28;20093;-57
2022/07/29 02:01:24;;;;;;;5.32;4.70;;;14.20;99.90;;;;;;21038292;28;20492;-57
2022/07/29 02:11:27;;;;;;;5.15;4.47;;;14.30;99.90;;;;;;21042186;28;20066;-58
2022/07/29 02:21:31;;;;;;;8.02;6.10;;;14.10;99.90;;;;;;21026549;28;20485;-58
2022/07/29 02:31:36;;;;;;;7.22;6.47;;;13.80;99.90;;;;;;21055774;28;20114;-58
2022/07/29 02:41:44;;;;;;;10.48;8.07;;;13.80;99.90;;;;;;21049093;28;20143;-59
2022/07/29 02:51:54;;;;;;;4.38;2.10;;;13.70;99.90;;;;;;21050861;28;20116;-58
2022/07/29 03:01:59;;;;;;;11.07;7.97;;;13.70;99.90;;;;;;21050733;28;20040;-58
2022/07/29 03:12:03;;;;;;;8.57;7.03;;;13.90;99.90;;;;;;21050843;28;20032;-58
2022/07/29 03:22:06;;;;;;;4.55;4.00;;;14.00;99.90;;;;;;21051005;28;20062;-58
2022/07/29 03:32:08;;;;;;;3.97;2.80;;;14.20;99.90;;;;;;21081902;27;20039;-58
2022/07/29 03:42:15;;;;;;;6.57;4.57;;;14.20;99.90;;;;;;21202143;27;20441;-57
2022/07/29 03:52:17;;;;;;;6.15;4.00;;;14.30;99.90;;;;;;21184917;27;20031;-57
2022/07/29 04:02:21;;;;;;;6.03;2.80;;;14.30;99.90;;;;;;21190475;27;20103;-59
2022/07/29 04:12:23;;;;;;;3.10;1.90;;;14.20;99.90;;;;;;21198706;27;20064;-59
2022/07/29 04:22:25;;;;;;;2.60;2.33;;;14.20;99.90;;;;;;21173730;27;20039;-59
2022/07/29 04:32:27;;;;;;;5.28;2.65;;;14.20;99.90;;;;;;21147574;27;20077;-57
2022/07/29 04:42:30;;;;;;;2.92;2.63;;;14.20;99.90;;;;;;21042650;28;20069;-57
2022/07/29 04:52:34;;;;;;;3.75;2.65;;;14.40;99.90;;;;;;21029349;28;20070;-57
2022/07/29 05:02:36;;;;;;;3.22;2.45;;;14.70;99.90;;;;;;21045447;28;20036;-59
2022/07/29 05:12:38;;;;;;;3.10;2.60;;;14.90;99.90;;;;;;21038302;28;20400;-57
2022/07/29 05:22:40;;;;;;;7.63;3.53;;;15.20;99.90;;;;;;21043652;28;20401;-57
2022/07/29 05:32:43;;;;;;;3.50;3.00;;;15.40;99.90;;;;;;21067166;28;20047;-57
2022/07/29 05:42:47;;;;;;;3.25;2.67;;;16.00;99.90;;;;;;21119154;28;20023;-57
2022/07/29 05:52:49;;;;;;;3.53;2.50;;;17.30;99.90;;;;;;21127804;28;20039;-57
2022/07/29 06:02:51;;;;;;;2.90;2.33;;;18.50;99.90;;;;;;21139688;28;20036;-62
2022/07/29 06:12:54;;;;;;;2.65;2.45;;;18.60;99.90;;;;;;21139260;28;20129;-57
2022/07/29 06:22:57;;;;;;;4.35;2.10;;;18.10;99.90;;;;;;21140590;28;20031;-63
2022/07/29 06:33:01;;;;;;;3.00;2.40;;;17.90;99.90;;;;;;21103425;28;20089;-58
2022/07/29 06:43:04;;;;;;;3.10;2.13;;;18.30;99.90;;;;;;21053627;28;20040;-58
2022/07/29 06:53:06;;;;;;;4.15;2.40;;;19.40;99.90;;;;;;21050271;28;20039;-59
2022/07/29 07:03:09;;;;;;;3.78;1.40;;;25.10;96.40;;;;;;21049810;28;20077;-60
2022/07/29 07:13:11;;;;;;;2.42;1.70;;;26.60;95.00;;;;;;21035599;28;20206;-59
2022/07/29 07:23:13;;;;;;;3.30;1.83;;;26.10;91.40;;;;;;21028510;28;20028;-60
2022/07/29 07:33:16;;;;;;;4.20;2.90;;;25.10;93.30;;;;;;21052039;28;20093;-61
2022/07/29 07:43:19;;;;;;;2.20;1.67;;;26.30;91.10;;;;;;21049556;28;20547;-60
2022/07/29 07:53:21;;;;;;;1.50;1.40;;;26.50;91.00;;;;;;21038937;28;20102;-61
2022/07/29 08:03:24;;;;;;;1.73;1.63;;;26.90;90.80;;;;;;21048664;28;20050;-60
2022/07/29 08:13:28;;;;;;;1.95;1.60;;;26.90;91.10;;;;;;21045859;28;20035;-60
2022/07/29 08:23:38;;;;;;;1.85;1.67;;;26.40;90.50;;;;;;21045423;28;20028;-59
2022/07/29 08:33:40;;;;;;;2.42;1.73;;;26.20;89.00;;;;;;21072631;27;20039;-64
2022/07/29 08:43:43;;;;;;;1.50;1.38;;;26.10;91.20;;;;;;21197250;27;20035;-60
2022/07/29 08:53:50;;;;;;;2.10;1.90;;;26.60;90.40;;;;;;21195580;27;20039;-60
2022/07/29 09:03:55;;;;;;;3.38;2.15;;;27.20;89.70;;;;;;21169295;27;20553;-60
2022/07/29 09:13:57;;;;;;;4.18;2.70;;;27.30;89.30;;;;;;21197244;27;20384;-60
2022/07/29 09:24:02;;;;;;;4.00;3.10;;;27.50;87.40;;;;;;21176917;27;20058;-60
2022/07/29 09:34:06;;;;;;;3.50;3.20;;;26.80;86.80;;;;;;21103743;27;20082;-60
2022/07/29 09:44:09;;;;;;;3.50;3.20;;;26.80;88.40;;;;;;21043873;28;20093;-59
2022/07/29 09:54:28;;;;;;;5.97;3.10;;;27.30;87.50;;;;;;21042427;28;20054;-58
2022/07/29 10:04:40;;;;;;;3.58;3.00;;;28.20;86.80;;;;;;21036493;28;20036;-59
2022/07/29 10:14:43;;;;;;;3.95;3.60;;;29.40;87.30;;;;;;21035552;28;20438;-59
2022/07/29 10:24:45;;;;;;;4.22;3.53;;;30.50;84.90;;;;;;21028967;28;20036;-58
2022/07/29 10:35:00;;;;;;;3.63;2.95;;;30.70;80.00;;;;;;21037165;28;20040;-60
2022/07/29 10:45:04;;;;;;;4.00;3.60;;;29.90;82.70;;;;;;21048026;28;20496;-58
2022/07/29 10:55:07;;;;;;;3.72;3.13;;;30.50;81.00;;;;;;21071713;28;20365;-58
2022/07/29 11:05:20;;;;;;;3.25;2.92;;;30.20;83.00;;;;;;21047554;28;20895;-58
2022/07/29 11:15:23;;;;;;;4.53;3.85;;;30.90;81.10;;;;;;21046317;28;20060;-58
2022/07/29 11:25:26;;;;;;;4.20;3.80;;;31.20;78.60;;;;;;21051462;28;20089;-57
2022/07/29 11:35:29;;;;;;;4.05;3.40;;;30.70;80.10;;;;;;21031477;28;20048;-61
2022/07/29 11:45:59;;;;;;;5.65;4.05;;;30.90;80.80;;;;;;21050479;28;20081;-58
2022/07/29 11:56:01;;;;;;;4.38;3.90;;;32.00;78.00;;;;;;21035092;28;20036;-60
2022/07/29 12:06:13;;;;;;;4.40;4.00;;;31.60;78.60;;;;;;21041576;28;20044;-58
2022/07/29 12:16:15;;;;;;;6.38;4.00;;;29.20;81.30;;;;;;21043768;28;20426;-58
2022/07/29 12:26:18;;;;;;;5.82;4.60;;;28.40;82.80;;;;;;21047951;28;20032;-58
2022/07/29 12:36:21;;;;;;;6.15;4.97;;;28.50;84.80;;;;;;21045437;28;20048;-58
2022/07/29 12:46:25;;;;;;;5.32;4.32;;;28.50;84.10;;;;;;21044251;28;20070;-58
2022/07/29 12:56:28;;;;;;;7.65;4.43;;;29.60;83.70;;;;;;21038684;28;20028;-57
2022/07/29 13:06:44;;;;;;;4.32;3.92;;;29.40;84.10;;;;;;21043030;28;20049;-58
2022/07/29 13:17:15;;;;;;;6.78;3.45;;;30.60;81.60;;;;;;21038227;28;20040;-57
2022/07/29 13:27:19;;;;;;;3.90;3.50;;;31.30;75.60;;;;;;21043476;28;20413;-58
2022/07/29 13:37:21;;;;;;;3.70;3.40;;;29.10;78.50;;;;;;21042786;28;20466;-58
2022/07/29 13:47:24;;;;;;;4.03;2.90;;;27.40;79.00;;;;;;21039294;28;20056;-59
2022/07/29 13:57:27;;;;;;;3.50;3.00;;;26.60;78.80;;;;;;21041051;28;20570;-60
2022/07/29 14:07:30;;;;;;;5.80;3.42;;;27.70;78.90;;;;;;21035699;28;20040;-57
2022/07/29 14:17:32;;;;;;;4.82;3.03;;;29.30;74.00;;;;;;21049049;28;20040;-58
2022/07/29 14:27:35;;;;;;;4.78;3.00;;;28.00;76.60;;;;;;21048326;28;20039;-57
2022/07/29 14:37:38;;;;;;;3.72;3.33;;;27.20;79.10;;;;;;21096844;28;20073;-60
2022/07/29 14:47:41;;;;;;;3.80;3.50;;;26.80;78.80;;;;;;21051481;28;20036;-57
2022/07/29 14:57:44;;;;;;;4.82;3.38;;;26.80;78.60;;;;;;21051715;28;20040;-60
2022/07/29 15:07:47;;;;;;;5.15;2.85;;;26.40;78.60;;;;;;21056683;28;20036;-57
2022/07/29 15:17:50;;;;;;;4.65;3.00;;;26.10;80.50;;;;;;21053874;28;20036;-57
2022/07/29 15:27:52;;;;;;;6.00;3.90;;;25.70;79.80;;;;;;21041865;28;20036;-57
2022/07/29 15:37:55;;;;;;;4.05;3.00;;;25.30;82.40;;;;;;21114904;28;20059;-57
2022/07/29 15:47:58;;;;;;;5.70;3.47;;;25.00;82.70;;;;;;21105262;28;20057;-57
2022/07/29 15:58:01;;;;;;;4.90;3.92;;;24.50;84.20;;;;;;21119718;28;20085;-58
2022/07/29 16:08:03;;;;;;;5.93;3.88;;;24.00;86.70;;;;;;21093832;28;20108;-57
2022/07/29 16:18:07;;;;;;;7.00;5.28;;;23.40;90.10;;;;;;21076288;28;20078;-57
2022/07/29 16:28:10;;;;;;;6.10;4.60;;;23.00;91.70;;;;;;21092079;28;20036;-57
2022/07/29 16:38:12;;;;;;;6.10;5.28;;;22.50;92.90;;;;;;21040149;28;20563;-59
2022/07/29 16:48:16;;;;;;;16.95;6.55;;;21.70;95.30;;;;;;21061264;28;20032;-60
2022/07/29 16:58:18;;;;;;;7.60;3.83;;;19.80;99.90;;;;;;21059491;28;20040;-59
2022/07/29 17:08:21;;;;;;;8.02;7.22;;;17.00;99.90;;;;;;21058472;28;20032;-59
2022/07/29 17:18:24;;;;;;;10.25;8.82;;;16.00;99.90;;;;;;21059915;28;20040;-57
2022/07/29 17:28:27;;;;;;;8.82;5.85;;;16.10;99.90;;;;;;21057914;28;20445;-62
2022/07/29 17:38:29;;;;;;;2.50;2.30;;;16.00;99.90;;;;;;21178967;27;20055;-62
2022/07/29 17:48:34;;;;;;;2.83;2.28;;;15.50;99.90;;;;;;21175706;27;20035;-61
2022/07/29 17:58:38;;;;;;;4.15;2.58;;;15.00;99.90;;;;;;21193237;27;20072;-61
2022/07/29 18:08:40;;;;;;;3.35;2.53;;;14.80;99.90;;;;;;21177847;27;20118;-61
2022/07/29 18:18:43;;;;;;;7.90;6.38;;;14.50;99.90;;;;;;21201596;27;20104;-60
2022/07/29 18:28:46;;;;;;;8.38;6.18;;;14.40;99.90;;;;;;21160799;27;20036;-61
2022/07/29 18:38:48;;;;;;;6.80;6.10;;;14.40;99.90;;;;;;21132018;28;20560;-60
2022/07/29 18:48:51;;;;;;;4.13;3.67;;;14.60;99.90;;;;;;21134621;28;20036;-60
2022/07/29 18:58:54;;;;;;;4.47;3.70;;;14.80;99.90;;;;;;21139001;28;20096;-58
2022/07/29 19:08:56;;;;;;;6.18;4.43;;;14.80;99.90;;;;;;21135873;28;20032;-57
2022/07/29 19:18:59;;;;;;;3.78;3.05;;;14.80;99.90;;;;;;21135144;28;20057;-57
2022/07/29 19:29:03;;;;;;;4.15;3.20;;;15.20;99.90;;;;;;21134305;28;20032;-58
2022/07/29 19:39:06;;;;;;;4.72;3.40;;;15.70;99.90;;;;;;21054548;28;20128;-58
2022/07/29 19:49:10;;;;;;;5.43;3.20;;;15.50;99.90;;;;;;21031575;28;20489;-59
2022/07/29 19:59:13;;;;;;;5.30;3.45;;;15.30;99.90;;;;;;21024244;28;20495;-58
2022/07/29 20:09:16;;;;;;;5.80;5.15;;;15.10;99.90;;;;;;21047990;28;20093;-59
2022/07/29 20:19:19;;;;;;;7.22;6.07;;;14.90;99.90;;;;;;21045065;28;20090;-61
2022/07/29 20:29:21;;;;;;;7.38;5.70;;;14.70;99.90;;;;;;21043205;28;20555;-61
2022/07/29 20:39:29;;;;;;;9.20;7.32;;;14.60;99.90;;;;;;21101864;28;20047;-61
2022/07/29 20:49:35;;;;;;;7.93;6.38;;;14.50;99.90;;;;;;21085994;28;20028;-58
2022/07/29 20:59:38;;;;;;;8.40;5.97;;;14.50;99.90;;;;;;21099440;28;20039;-60
2022/07/29 21:09:40;;;;;;;10.32;8.20;;;14.50;99.90;;;;;;21084707;28;20366;-59
2022/07/29 21:19:43;;;;;;;7.75;5.68;;;14.50;99.90;;;;;;21092644;28;20061;-60
2022/07/29 21:29:45;;;;;;;6.57;5.50;;;14.50;99.90;;;;;;21101030;28;20044;-57
2022/07/29 21:39:51;;;;;;;6.55;5.53;;;14.50;99.90;;;;;;21109793;28;20329;-59
2022/07/29 21:49:54;;;;;;;5.28;4.55;;;14.40;99.90;;;;;;21119752;28;20111;-58
2022/07/29 21:59:57;;;;;;;4.90;4.00;;;14.30;99.90;;;;;;21109381;28;20036;-60
2022/07/29 22:09:59;;;;;;;4.78;4.10;;;14.30;99.90;;;;;;21115574;28;20040;-59
2022/07/29 22:20:03;;;;;;;5.47;3.92;;;14.20;99.90;;;;;;21113978;28;20024;-58
2022/07/29 22:30:07;;;;;;;5.82;4.47;;;14.20;99.90;;;;;;21086399;28;20101;-58
2022/07/29 22:40:11;;;;;;;4.13;3.03;;;14.20;99.90;;;;;;21097572;28;20102;-57
2022/07/29 22:50:13;;;;;;;4.20;3.53;;;14.20;99.90;;;;;;21123228;28;20035;-59
2022/07/29 23:00:17;;;;;;;5.05;3.42;;;14.10;99.90;;;;;;21124598;28;20032;-58
2022/07/29 23:10:21;;;;;;;3.28;2.97;;;14.00;99.90;;;;;;21128129;28;20036;-59
2022/07/29 23:20:24;;;;;;;5.15;2.53;;;13.80;99.90;;;;;;21125930;28;20040;-59
2022/07/29 23:30:26;;;;;;;6.90;2.50;;;13.70;99.90;;;;;;21128895;28;20096;-58
2022/07/29 23:40:29;;;;;;;3.42;1.83;;;13.60;99.90;;;;;;21116967;28;20069;-58
2022/07/29 23:50:31;;;;;;;2.70;1.77;;;13.40;99.90;;;;;;21124604;28;20054;-58
